Time;durP1;ratioP1;P1;durP2;ratioP2;P2;SDS_P1;SDS_P2;PMS_P1;PMS_P2;Temp;Humidity;BMP_temperature;BMP_pressure;BME280_temperature;BME280_humidity;BME280_pressure;Samples;Min_cycle;Max_cycle;Signal;HPM_P1;HPM_P2
2021/04/22 00:01:37;;;;;;;20.05;5.07;;;7.80;57.40;;;;;;5071834;28;20495;-43
2021/04/22 00:04:04;;;;;;;16.17;4.60;;;7.70;58.00;;;;;;5071594;28;20082;-46
2021/04/22 00:06:31;;;;;;;17.92;4.25;;;7.70;57.80;;;;;;5071440;28;20049;-45
2021/04/22 00:08:58;;;;;;;21.35;4.75;;;7.70;57.80;;;;;;5072007;28;20099;-42
2021/04/22 00:11:24;;;;;;;;;;;7.70;57.80;;;;;;5071874;28;20100;-43
2021/04/22 00:13:51;;;;;;;18.88;4.07;;;7.70;58.00;;;;;;5071497;28;19968;-44
2021/04/22 00:16:18;;;;;;;;;;;7.70;58.00;;;;;;5071805;28;20094;-44
2021/04/22 00:18:44;;;;;;;21.17;4.85;;;7.80;58.00;;;;;;5071442;28;19943;-44
2021/04/22 00:21:12;;;;;;;21.30;4.43;;;7.80;57.90;;;;;;5071217;28;20052;-43
2021/04/22 00:23:39;;;;;;;;;;;7.90;57.60;;;;;;5072121;28;20099;-43
2021/04/22 00:26:05;;;;;;;15.82;3.92;;;7.90;57.70;;;;;;5071672;28;19920;-44
2021/04/22 00:28:32;;;;;;;;;;;8.00;57.50;;;;;;5071964;28;20107;-44
2021/04/22 00:30:59;;;;;;;16.70;4.40;;;7.90;57.30;;;;;;5072214;28;20336;-45
2021/04/22 00:33:25;;;;;;;;;;;7.90;57.50;;;;;;5092286;28;20044;-43
2021/04/22 00:35:52;;;;;;;15.55;3.97;;;7.90;57.60;;;;;;5088598;28;20033;-43
2021/04/22 00:38:19;;;;;;;15.95;5.18;;;7.80;57.50;;;;;;5065751;28;20033;-47
2021/04/22 00:40:48;;;;;;;21.05;4.82;;;7.80;57.80;;;;;;5075123;28;20048;-46
2021/04/22 00:43:17;;;;;;;16.70;4.10;;;7.90;57.60;;;;;;5075099;28;20052;-43
2021/04/22 00:45:45;;;;;;;22.83;4.50;;;7.80;57.70;;;;;;5074628;28;20090;-45
2021/04/22 00:48:14;;;;;;;13.85;4.38;;;7.80;57.90;;;;;;5074944;28;20049;-46
2021/04/22 00:50:45;;;;;;;14.32;4.40;;;7.80;57.80;;;;;;5090469;28;20044;-45
2021/04/22 00:53:12;;;;;;;;;;;7.80;58.00;;;;;;5075109;28;20060;-45
2021/04/22 00:55:39;;;;;;;14.95;4.22;;;7.90;58.00;;;;;;5074817;28;19966;-44
2021/04/22 00:58:07;;;;;;;18.95;4.13;;;7.90;57.90;;;;;;5074767;28;20086;-45
2021/04/22 01:00:35;;;;;;;17.92;4.38;;;7.90;57.50;;;;;;5074578;28;20064;-44
2021/04/22 01:03:04;;;;;;;16.80;5.03;;;7.70;58.20;;;;;;5074681;28;20552;-43
2021/04/22 01:05:33;;;;;;;17.00;5.00;;;7.60;58.50;;;;;;5074700;28;20067;-43
2021/04/22 01:08:01;;;;;;;19.63;4.43;;;7.40;59.20;;;;;;5074604;28;20375;-43
2021/04/22 01:10:27;;;;;;;17.73;4.40;;;7.40;59.30;;;;;;5074562;28;20044;-43
2021/04/22 01:12:54;;;;;;;22.70;4.90;;;7.40;59.50;;;;;;5074349;28;20032;-44
2021/04/22 01:15:22;;;;;;;;;;;7.50;59.10;;;;;;5074567;28;20048;-43
2021/04/22 01:17:49;;;;;;;25.60;5.05;;;7.50;59.20;;;;;;5074549;28;19927;-45
2021/04/22 01:20:22;;;;;;;16.70;4.45;;;7.50;59.10;;;;;;5074677;28;20052;-44
2021/04/22 01:22:49;;;;;;;15.68;4.75;;;7.50;59.10;;;;;;5074138;28;20383;-45
2021/04/22 01:25:20;;;;;;;15.75;4.50;;;7.50;59.10;;;;;;5074516;28;20056;-44
2021/04/22 01:27:47;;;;;;;16.23;4.50;;;7.50;59.00;;;;;;5074246;28;20075;-43
2021/04/22 01:30:17;;;;;;;17.25;4.78;;;7.50;59.10;;;;;;5074085;28;20064;-44
2021/04/22 01:32:44;;;;;;;13.43;4.18;;;7.60;58.90;;;;;;5073849;28;20475;-43
2021/04/22 01:35:19;;;;;;;14.48;4.25;;;7.50;58.50;;;;;;5074046;28;20044;-45
2021/04/22 01:37:46;;;;;;;14.20;4.28;;;7.50;58.80;;;;;;5074229;28;20048;-45
2021/04/22 01:40:14;;;;;;;20.05;4.50;;;7.60;58.80;;;;;;5074274;28;20041;-44
2021/04/22 01:42:41;;;;;;;14.40;3.80;;;7.60;58.60;;;;;;5073969;28;20130;-45
2021/04/22 01:45:09;;;;;;;19.65;4.65;;;7.60;58.40;;;;;;5073115;28;20041;-43
2021/04/22 01:47:36;;;;;;;16.95;4.50;;;7.60;58.50;;;;;;5074342;28;20041;-45
2021/04/22 01:50:06;;;;;;;20.67;4.03;;;7.60;58.50;;;;;;5073789;28;20089;-44
2021/04/22 01:52:34;;;;;;;21.77;5.20;;;7.60;58.60;;;;;;5073715;28;20056;-43
2021/04/22 01:55:01;;;;;;;20.25;4.80;;;7.50;58.60;;;;;;5073941;28;20045;-44
2021/04/22 01:57:27;;;;;;;17.33;4.97;;;7.50;58.70;;;;;;5073519;28;20052;-42
2021/04/22 01:59:54;;;;;;;;;;;7.50;58.70;;;;;;5073632;28;20080;-43
2021/04/22 02:02:20;;;;;;;20.15;5.13;;;7.50;58.80;;;;;;5073761;28;19920;-44
2021/04/22 02:04:51;;;;;;;19.55;4.82;;;7.50;58.90;;;;;;5073761;28;20053;-45
2021/04/22 02:07:17;;;;;;;16.15;4.28;;;7.50;59.20;;;;;;5072438;28;20052;-43
2021/04/22 02:09:44;;;;;;;18.77;4.90;;;7.40;59.00;;;;;;5073743;28;20041;-44
2021/04/22 02:12:11;;;;;;;16.55;4.13;;;7.50;58.90;;;;;;5071779;28;20090;-45
2021/04/22 02:14:37;;;;;;;;;;;7.50;59.10;;;;;;5073802;28;20110;-44
2021/04/22 02:17:04;;;;;;;;;;;7.50;59.00;;;;;;5072732;28;20010;-44
2021/04/22 02:19:30;;;;;;;22.50;5.15;;;7.50;58.80;;;;;;5073564;28;19931;-44
2021/04/22 02:21:57;;;;;;;;;;;7.50;58.60;;;;;;5073879;28;20057;-44
2021/04/22 02:24:24;;;;;;;16.92;4.65;;;7.40;58.80;;;;;;5073082;28;19934;-44
2021/04/22 02:26:50;;;;;;;17.88;4.82;;;7.50;59.10;;;;;;5072662;28;20459;-45
2021/04/22 02:29:17;;;;;;;14.75;4.38;;;7.50;58.90;;;;;;5072962;28;20047;-43
2021/04/22 02:31:44;;;;;;;17.40;4.57;;;7.50;59.00;;;;;;5071800;28;20114;-45
2021/04/22 02:34:11;;;;;;;18.58;4.68;;;7.40;58.70;;;;;;5073092;28;20059;-43
2021/04/22 02:36:37;;;;;;;17.08;4.72;;;7.40;58.70;;;;;;5073275;28;20052;-43
2021/04/22 02:39:05;;;;;;;22.67;4.75;;;7.40;58.90;;;;;;5072961;28;20495;-45
2021/04/22 02:41:31;;;;;;;23.92;5.30;;;7.30;58.90;;;;;;5072730;28;20044;-43
2021/04/22 02:43:59;;;;;;;19.80;5.10;;;7.30;59.10;;;;;;5072554;28;20037;-44
2021/04/22 02:46:26;;;;;;;15.18;5.18;;;7.30;59.20;;;;;;5072789;28;20036;-43
2021/04/22 02:48:52;;;;;;;;;;;7.30;59.20;;;;;;5073138;28;20040;-43
2021/04/22 02:51:19;;;;;;;19.40;4.38;;;7.30;59.20;;;;;;5072595;28;19924;-46
2021/04/22 02:53:45;;;;;;;23.38;5.18;;;7.30;59.30;;;;;;5072235;28;20057;-44
2021/04/22 02:56:12;;;;;;;18.60;4.85;;;7.20;59.30;;;;;;5072119;28;20468;-46
2021/04/22 02:58:38;;;;;;;20.83;5.00;;;7.20;59.40;;;;;;5072510;28;20071;-47
2021/04/22 03:01:05;;;;;;;20.70;5.07;;;7.20;59.30;;;;;;5072124;28;20499;-43
2021/04/22 03:03:32;;;;;;;21.25;4.80;;;7.20;59.50;;;;;;5072093;28;20044;-43
2021/04/22 03:05:59;;;;;;;15.57;5.10;;;7.30;59.30;;;;;;5072444;28;20066;-45
2021/04/22 03:08:26;;;;;;;;;;;7.30;59.20;;;;;;5072719;28;20458;-42
2021/04/22 03:10:53;;;;;;;15.13;5.05;;;7.30;59.10;;;;;;5071907;28;19955;-45
2021/04/22 03:13:19;;;;;;;19.00;4.90;;;7.30;59.30;;;;;;5072033;28;20049;-47
2021/04/22 03:15:46;;;;;;;16.15;4.60;;;7.30;59.30;;;;;;5072131;28;20487;-47
2021/04/22 03:18:13;;;;;;;20.60;5.32;;;7.30;59.30;;;;;;5072233;28;20040;-46
2021/04/22 03:20:40;;;;;;;20.75;4.60;;;7.20;59.20;;;;;;5072228;28;20487;-46
2021/04/22 03:23:08;;;;;;;24.55;4.93;;;7.20;59.40;;;;;;5072053;28;20051;-43
2021/04/22 03:25:34;;;;;;;18.35;4.78;;;7.20;59.40;;;;;;5071737;28;20036;-45
2021/04/22 03:28:01;;;;;;;18.83;5.15;;;7.20;59.20;;;;;;5071930;28;20041;-43
2021/04/22 03:30:31;;;;;;;17.55;4.72;;;7.20;59.30;;;;;;5072333;28;20453;-44
2021/04/22 03:32:58;;;;;;;18.27;4.85;;;7.20;59.40;;;;;;5071859;28;20049;-43
2021/04/22 03:35:26;;;;;;;17.02;4.43;;;7.20;59.60;;;;;;5072214;28;20090;-43
2021/04/22 03:37:53;;;;;;;17.35;4.50;;;7.20;59.50;;;;;;5071861;28;20040;-45
2021/04/22 03:40:21;;;;;;;18.15;4.97;;;7.20;59.40;;;;;;5071907;28;20052;-44
2021/04/22 03:42:48;;;;;;;12.68;4.78;;;7.20;59.50;;;;;;5071503;28;20075;-44
2021/04/22 03:45:17;;;;;;;16.90;4.90;;;7.20;59.40;;;;;;5072030;28;20052;-44
2021/04/22 03:47:44;;;;;;;16.08;4.70;;;7.20;59.60;;;;;;5072150;28;20064;-44
2021/04/22 03:50:14;;;;;;;15.45;4.72;;;7.10;59.80;;;;;;5071690;28;20076;-41
2021/04/22 03:52:41;;;;;;;15.75;4.97;;;7.10;59.70;;;;;;5071752;28;20144;-43
2021/04/22 03:55:09;;;;;;;16.98;4.97;;;7.10;59.90;;;;;;5071226;28;20060;-42
2021/04/22 03:57:36;;;;;;;18.48;4.82;;;7.10;60.60;;;;;;5071600;28;20072;-45
2021/04/22 04:00:05;;;;;;;16.77;5.30;;;7.00;60.00;;;;;;5071903;28;20079;-45
2021/04/22 04:02:33;;;;;;;18.58;4.43;;;7.10;60.10;;;;;;5071658;28;20059;-45
2021/04/22 04:05:00;;;;;;;17.58;4.85;;;7.10;59.90;;;;;;5071745;28;20080;-45
2021/04/22 04:07:27;;;;;;;16.75;4.55;;;7.10;60.00;;;;;;5072075;28;20113;-46
2021/04/22 04:09:54;;;;;;;18.17;5.22;;;7.10;60.00;;;;;;5071293;28;20044;-45
2021/04/22 04:12:25;;;;;;;16.55;5.47;;;7.10;59.80;;;;;;5071325;28;20048;-47
2021/04/22 04:14:51;;;;;;;15.68;4.78;;;7.10;59.60;;;;;;5074088;28;20052;-44
2021/04/22 04:17:18;;;;;;;16.83;5.10;;;7.10;59.70;;;;;;5075682;28;20058;-45
2021/04/22 04:19:45;;;;;;;18.52;4.75;;;7.10;60.00;;;;;;5075658;28;20053;-48
2021/04/22 04:22:12;;;;;;;18.50;5.03;;;7.10;59.90;;;;;;5075347;28;20098;-46
2021/04/22 04:24:38;;;;;;;15.95;4.85;;;7.10;59.70;;;;;;5075020;28;20141;-45
2021/04/22 04:27:05;;;;;;;18.23;5.35;;;7.10;59.80;;;;;;5075515;28;20103;-45
2021/04/22 04:29:32;;;;;;;18.90;5.30;;;7.00;59.90;;;;;;5074214;28;20041;-45
2021/04/22 04:31:58;;;;;;;14.98;5.60;;;7.00;60.00;;;;;;5075231;28;20052;-45
2021/04/22 04:34:25;;;;;;;24.17;5.40;;;7.00;60.10;;;;;;5074311;28;20044;-46
2021/04/22 04:36:51;;;;;;;18.10;4.63;;;7.00;60.00;;;;;;5075527;28;20121;-44
2021/04/22 04:39:18;;;;;;;;;;;7.00;60.50;;;;;;5075093;28;20127;-44
2021/04/22 04:41:45;;;;;;;16.58;4.70;;;7.00;59.70;;;;;;5075565;28;20442;-44
2021/04/22 04:44:11;;;;;;;;;;;7.00;59.80;;;;;;5075455;28;20044;-45
2021/04/22 04:46:39;;;;;;;16.10;5.38;;;7.10;59.90;;;;;;5073678;28;19928;-43
2021/04/22 04:49:07;;;;;;;18.00;4.55;;;7.10;59.60;;;;;;5074762;28;20044;-44
2021/04/22 04:51:35;;;;;;;14.25;4.45;;;7.00;59.80;;;;;;5074327;28;20076;-43
2021/04/22 04:54:03;;;;;;;14.43;4.28;;;7.10;60.00;;;;;;5074881;28;20064;-44
2021/04/22 04:56:31;;;;;;;16.65;4.35;;;7.10;59.80;;;;;;5074994;28;20131;-43
2021/04/22 04:58:57;;;;;;;15.57;5.03;;;7.10;59.60;;;;;;5074500;28;20056;-44
2021/04/22 05:01:24;;;;;;;18.20;5.38;;;7.10;59.60;;;;;;5074946;28;20071;-46
2021/04/22 05:03:51;;;;;;;;;;;7.10;59.70;;;;;;5074858;28;20118;-43
2021/04/22 05:06:17;;;;;;;14.82;5.40;;;7.10;59.60;;;;;;5074261;28;19933;-44
2021/04/22 05:08:44;;;;;;;;;;;7.10;59.80;;;;;;5074858;28;20588;-43
2021/04/22 05:11:11;;;;;;;21.23;5.97;;;6.90;60.10;;;;;;5074429;28;19924;-44
2021/04/22 05:13:37;;;;;;;;;;;6.80;60.60;;;;;;5074858;28;20056;-43
2021/04/22 05:16:04;;;;;;;16.52;5.60;;;6.70;60.80;;;;;;5073467;28;19967;-45
2021/04/22 05:18:31;;;;;;;20.25;5.05;;;6.80;60.70;;;;;;5074727;28;20051;-42
2021/04/22 05:20:57;;;;;;;20.13;5.97;;;6.80;61.00;;;;;;5073808;28;20089;-45
2021/04/22 05:23:24;;;;;;;;;;;6.80;60.90;;;;;;5074967;28;20438;-45
2021/04/22 05:25:54;;;;;;;16.73;5.32;;;6.80;61.00;;;;;;5073814;28;19920;-44
2021/04/22 05:28:22;;;;;;;18.30;5.20;;;6.80;60.80;;;;;;5074525;28;20049;-47
2021/04/22 05:30:49;;;;;;;23.67;6.28;;;6.80;60.70;;;;;;5074275;28;20072;-45
2021/04/22 05:33:16;;;;;;;18.92;5.97;;;6.80;60.80;;;;;;5082811;28;20052;-42
2021/04/22 05:35:44;;;;;;;17.30;5.85;;;6.80;61.00;;;;;;5090459;28;20039;-45
2021/04/22 05:38:11;;;;;;;21.90;6.47;;;6.70;61.50;;;;;;5092724;28;20086;-43
2021/04/22 05:40:38;;;;;;;16.23;5.18;;;6.60;61.90;;;;;;5091614;28;20044;-43
2021/04/22 05:43:07;;;;;;;;;;;6.60;62.20;;;;;;5092446;28;20040;-44
2021/04/22 05:45:35;;;;;;;21.90;6.63;;;6.50;62.40;;;;;;5080409;28;19963;-46
2021/04/22 05:48:03;;;;;;;24.98;7.10;;;6.60;62.90;;;;;;5073791;28;20552;-45
2021/04/22 05:50:29;;;;;;;18.55;6.47;;;6.60;62.90;;;;;;5072182;28;20053;-45
2021/04/22 05:52:56;;;;;;;20.02;6.20;;;6.60;62.80;;;;;;5073557;28;20056;-43
2021/04/22 05:55:23;;;;;;;29.55;6.70;;;6.60;62.80;;;;;;5073819;28;20056;-47
2021/04/22 05:57:50;;;;;;;;;;;6.70;62.70;;;;;;5074118;28;20044;-43
2021/04/22 06:00:30;;;;;;;16.85;6.25;;;6.70;62.70;;;;;;4799389;28;10001060;-42
2021/04/22 06:02:57;;;;;;;28.42;6.65;;;6.70;63.10;;;;;;5071543;28;20257;-43
2021/04/22 06:05:24;;;;;;;19.15;6.15;;;6.70;63.20;;;;;;5070545;28;20056;-48
2021/04/22 06:07:51;;;;;;;19.75;5.95;;;6.70;63.30;;;;;;5071450;28;20041;-42
2021/04/22 06:10:17;;;;;;;;;;;6.70;63.50;;;;;;5070469;28;20056;-43
2021/04/22 06:12:45;;;;;;;20.92;5.78;;;6.70;63.30;;;;;;5070738;28;19931;-44
2021/04/22 06:15:12;;;;;;;21.38;6.20;;;6.70;63.10;;;;;;5071401;28;20064;-45
2021/04/22 06:17:38;;;;;;;20.67;5.75;;;6.80;63.20;;;;;;5071154;28;20542;-47
2021/04/22 06:20:11;;;;;;;26.10;6.13;;;6.90;62.90;;;;;;5070670;28;20048;-46
2021/04/22 06:22:38;;;;;;;25.33;6.80;;;6.90;62.80;;;;;;5070619;28;20071;-44
2021/04/22 06:25:06;;;;;;;23.30;6.85;;;6.80;62.20;;;;;;5070686;28;20441;-47
2021/04/22 06:27:33;;;;;;;21.42;5.72;;;6.80;62.70;;;;;;5070583;28;20461;-43
2021/04/22 06:30:00;;;;;;;20.80;5.60;;;6.80;62.90;;;;;;5070887;28;20571;-45
2021/04/22 06:32:27;;;;;;;23.83;6.63;;;6.80;62.70;;;;;;5068852;28;20152;-44
2021/04/22 06:34:53;;;;;;;;;;;6.80;62.00;;;;;;5070691;28;20052;-44
2021/04/22 06:37:20;;;;;;;18.88;5.35;;;6.90;62.00;;;;;;5068738;28;19925;-46
2021/04/22 06:39:46;;;;;;;18.52;5.55;;;6.90;61.50;;;;;;5070569;28;20072;-44
2021/04/22 06:42:13;;;;;;;17.33;5.93;;;6.90;60.90;;;;;;5070747;28;20469;-44
2021/04/22 06:44:40;;;;;;;21.50;6.40;;;6.90;60.80;;;;;;5069343;28;20087;-44
2021/04/22 06:47:06;;;;;;;19.10;5.35;;;6.90;60.30;;;;;;5070454;28;20499;-45
2021/04/22 06:49:33;;;;;;;13.32;4.45;;;6.90;60.60;;;;;;5069704;28;20063;-44
2021/04/22 06:52:00;;;;;;;13.07;4.50;;;6.90;60.60;;;;;;5068851;28;20044;-44
2021/04/22 06:54:27;;;;;;;;;;;7.00;60.80;;;;;;5070995;28;20068;-43
2021/04/22 06:56:53;;;;;;;27.27;5.75;;;7.10;60.90;;;;;;5070355;28;20424;-45
2021/04/22 06:59:20;;;;;;;;;;;7.10;59.60;;;;;;5070927;28;20576;-43
2021/04/22 07:01:50;;;;;;;13.50;4.15;;;7.10;59.90;;;;;;5069836;28;19924;-43
2021/04/22 07:04:17;;;;;;;17.50;5.63;;;7.10;59.80;;;;;;5069477;28;20419;-45
2021/04/22 07:06:44;;;;;;;;;;;7.10;60.10;;;;;;5070791;28;20047;-45
2021/04/22 07:09:12;;;;;;;13.48;4.75;;;7.20;60.00;;;;;;5070017;28;19931;-46
2021/04/22 07:11:38;;;;;;;19.17;5.22;;;7.20;59.70;;;;;;5081881;28;20548;-43
2021/04/22 07:14:05;;;;;;;21.73;5.05;;;7.20;60.40;;;;;;5070753;28;20494;-43
2021/04/22 07:16:35;;;;;;;14.55;4.40;;;7.30;60.20;;;;;;5070121;28;20052;-43
2021/04/22 07:19:02;;;;;;;23.08;4.53;;;7.30;59.70;;;;;;5069304;28;20141;-43
2021/04/22 07:21:28;;;;;;;19.30;5.60;;;7.40;61.50;;;;;;5055255;28;20106;-45
2021/04/22 07:23:55;;;;;;;;;;;7.40;60.10;;;;;;5070095;28;20048;-43
2021/04/22 07:26:21;;;;;;;15.18;5.00;;;7.40;59.70;;;;;;5072933;28;19920;-45
2021/04/22 07:28:48;;;;;;;21.00;4.85;;;7.40;59.50;;;;;;5072682;28;20105;-42
2021/04/22 07:31:17;;;;;;;18.75;4.68;;;7.50;58.80;;;;;;5071907;28;20104;-42
2021/04/22 07:33:47;;;;;;;16.30;4.90;;;7.40;57.40;;;;;;5071432;28;20513;-43
2021/04/22 07:36:15;;;;;;;26.00;5.82;;;7.40;57.90;;;;;;5073535;28;20056;-44
2021/04/22 07:38:42;;;;;;;17.55;4.88;;;7.40;57.60;;;;;;5072944;28;20150;-45
2021/04/22 07:41:09;;;;;;;15.43;4.65;;;7.40;57.30;;;;;;5073629;28;20032;-45
2021/04/22 07:43:36;;;;;;;18.38;4.68;;;7.40;57.40;;;;;;5070642;28;20156;-43
2021/04/22 07:46:03;;;;;;;15.30;4.55;;;7.50;57.80;;;;;;5072173;28;20053;-44
2021/04/22 07:48:31;;;;;;;20.50;4.57;;;7.50;57.30;;;;;;5070757;28;20083;-45
2021/04/22 07:50:58;;;;;;;19.92;5.03;;;7.50;57.20;;;;;;5081417;28;20079;-43
2021/04/22 07:53:25;;;;;;;17.23;4.43;;;7.50;57.60;;;;;;5088302;28;20491;-44
2021/04/22 07:55:52;;;;;;;15.68;4.85;;;7.60;57.10;;;;;;5090471;28;20127;-45
2021/04/22 07:58:19;;;;;;;;;;;7.60;57.30;;;;;;5088325;28;20124;-43
2021/04/22 08:00:49;;;;;;;14.07;4.05;;;7.60;56.20;;;;;;5089860;28;19923;-45
2021/04/22 08:03:17;;;;;;;17.10;4.45;;;7.60;57.30;;;;;;5078021;28;20106;-44
2021/04/22 08:05:47;;;;;;;19.58;4.85;;;7.60;55.30;;;;;;5090128;28;20105;-42
2021/04/22 08:08:14;;;;;;;19.85;4.53;;;7.70;55.80;;;;;;5089881;28;20044;-43
2021/04/22 08:10:44;;;;;;;18.40;4.30;;;7.60;56.30;;;;;;5088606;28;20064;-43
2021/04/22 08:13:14;;;;;;;18.30;4.40;;;7.60;56.10;;;;;;5089749;28;20046;-41
2021/04/22 08:15:44;;;;;;;16.02;5.18;;;7.60;56.10;;;;;;5087464;28;20059;-43
2021/04/22 08:18:11;;;;;;;17.92;4.95;;;7.60;56.60;;;;;;5089572;28;20071;-44
2021/04/22 08:20:38;;;;;;;18.10;5.22;;;7.70;56.30;;;;;;5088218;28;20041;-44
2021/04/22 08:23:07;;;;;;;19.50;6.03;;;7.60;56.20;;;;;;5089647;28;20406;-44
2021/04/22 08:25:37;;;;;;;21.67;5.32;;;7.70;55.90;;;;;;5088259;28;20072;-42
2021/04/22 08:28:06;;;;;;;21.05;5.68;;;7.70;56.00;;;;;;5089613;28;20044;-44
2021/04/22 08:30:55;;;;;;;17.75;5.20;;;7.60;55.90;;;;;;5087312;28;20076;-42
2021/04/22 08:33:25;;;;;;;19.23;6.25;;;7.70;56.00;;;;;;5074473;28;20133;-42
2021/04/22 08:35:52;;;;;;;16.85;5.68;;;7.70;56.10;;;;;;5070127;28;20051;-43
2021/04/22 08:38:20;;;;;;;22.25;4.50;;;7.80;56.60;;;;;;5090008;28;20121;-46
2021/04/22 08:40:48;;;;;;;18.95;5.18;;;7.80;56.60;;;;;;5088300;28;20048;-44
2021/04/22 08:43:15;;;;;;;14.73;5.05;;;7.80;56.40;;;;;;5089458;28;20443;-41
2021/04/22 08:45:43;;;;;;;19.70;5.25;;;7.90;57.00;;;;;;5080030;28;20094;-43
2021/04/22 08:48:11;;;;;;;17.83;5.40;;;7.90;56.90;;;;;;5071197;28;20548;-44
2021/04/22 08:50:41;;;;;;;17.63;5.45;;;8.00;57.50;;;;;;5076221;28;20063;-43
2021/04/22 08:53:18;;;;;;;15.10;5.35;;;8.10;57.30;;;;;;5076599;28;20060;-44
2021/04/22 08:55:45;;;;;;;15.88;5.32;;;8.20;56.90;;;;;;5080699;28;20093;-45
2021/04/22 08:58:12;;;;;;;16.92;4.88;;;8.20;56.40;;;;;;5069320;28;20671;-42
2021/04/22 09:00:42;;;;;;;23.20;5.50;;;8.20;56.00;;;;;;5085138;28;20040;-42
2021/04/22 09:03:09;;;;;;;22.85;4.97;;;8.20;56.50;;;;;;5076551;28;20135;-44
2021/04/22 09:05:37;;;;;;;20.92;4.35;;;8.10;55.60;;;;;;5085242;28;20044;-45
2021/04/22 09:08:04;;;;;;;21.98;4.57;;;8.00;55.70;;;;;;5079639;28;20063;-43
2021/04/22 09:10:31;;;;;;;19.67;4.32;;;8.10;56.30;;;;;;5083165;28;20093;-44
2021/04/22 09:13:09;;;;;;;20.42;4.53;;;8.20;55.10;;;;;;5081294;28;20036;-46
2021/04/22 09:15:38;;;;;;;18.75;4.32;;;8.20;55.20;;;;;;5083072;28;20048;-44
2021/04/22 09:18:11;;;;;;;16.73;4.50;;;8.20;55.30;;;;;;5082186;28;20507;-44
2021/04/22 09:20:41;;;;;;;15.15;3.90;;;8.30;55.50;;;;;;5082669;28;20044;-43
2021/04/22 09:23:26;;;;;;;15.15;4.20;;;8.30;55.30;;;;;;5082109;28;20075;-44
2021/04/22 09:26:05;;;;;;;15.80;4.50;;;8.40;54.80;;;;;;5083789;28;20409;-43
2021/04/22 09:28:39;;;;;;;14.07;3.65;;;8.40;54.20;;;;;;5079376;28;20048;-45
2021/04/22 09:31:07;;;;;;;15.07;3.83;;;8.50;54.70;;;;;;5084740;28;20044;-42
2021/04/22 09:33:36;;;;;;;15.52;3.92;;;8.50;54.90;;;;;;5079905;28;20150;-46
2021/04/22 09:36:15;;;;;;;14.10;4.40;;;8.60;56.00;;;;;;5083543;28;20032;-44
2021/04/22 09:38:52;;;;;;;15.10;4.40;;;8.60;53.70;;;;;;5080264;28;20078;-45
2021/04/22 09:41:25;;;;;;;15.65;4.40;;;8.60;54.20;;;;;;5085017;28;20122;-44
2021/04/22 09:44:02;;;;;;;13.30;4.13;;;8.60;54.10;;;;;;5079287;28;20047;-43
2021/04/22 09:46:29;;;;;;;14.98;4.22;;;8.70;53.80;;;;;;5077714;28;20533;-45
2021/04/22 09:49:07;;;;;;;14.70;4.60;;;8.80;53.50;;;;;;5073695;28;20438;-44
2021/04/22 09:51:34;;;;;;;18.23;4.72;;;8.80;52.70;;;;;;5073179;28;20048;-42
2021/04/22 09:54:04;;;;;;;14.32;4.47;;;8.80;53.30;;;;;;5073313;28;20056;-45
2021/04/22 09:56:40;;;;;;;12.68;4.32;;;8.80;53.60;;;;;;5073183;28;20049;-44
2021/04/22 09:59:08;;;;;;;13.68;4.88;;;8.80;53.00;;;;;;5073530;28;20052;-45
2021/04/22 10:01:35;;;;;;;20.92;5.20;;;8.80;54.10;;;;;;5073319;28;20058;-46
2021/04/22 10:04:03;;;;;;;26.17;9.40;;;8.80;53.60;;;;;;5073323;28;20545;-44
2021/04/22 10:06:43;;;;;;;18.13;4.95;;;8.90;53.90;;;;;;5073417;28;20060;-43
2021/04/22 10:09:10;;;;;;;17.92;4.97;;;8.90;54.20;;;;;;5073022;28;20486;-44
2021/04/22 10:11:43;;;;;;;;;;;8.90;53.80;;;;;;5072840;28;20052;-45
2021/04/22 10:14:10;;;;;;;18.05;4.47;;;8.90;53.50;;;;;;5072986;28;19924;-44
2021/04/22 10:16:37;;;;;;;14.95;5.47;;;8.90;54.00;;;;;;5073410;28;20075;-44
2021/04/22 10:19:17;;;;;;;15.35;4.97;;;9.00;54.20;;;;;;5072369;28;20388;-45
2021/04/22 10:21:46;;;;;;;16.52;4.30;;;9.00;53.60;;;;;;5064341;28;20044;-45
2021/04/22 10:24:14;;;;;;;18.90;5.45;;;9.00;53.80;;;;;;5058212;28;20528;-45
2021/04/22 10:26:43;;;;;;;18.00;5.18;;;9.00;53.70;;;;;;5065919;28;20090;-46
2021/04/22 10:29:10;;;;;;;17.48;5.15;;;9.00;53.10;;;;;;5077848;28;20056;-42
2021/04/22 10:31:38;;;;;;;16.35;4.45;;;9.10;53.80;;;;;;5075358;28;20044;-46
2021/04/22 10:34:08;;;;;;;16.60;5.32;;;9.20;52.80;;;;;;5076599;28;20090;-44
2021/04/22 10:36:36;;;;;;;17.10;5.45;;;9.30;53.60;;;;;;5075541;28;20041;-44
2021/04/22 10:39:04;;;;;;;13.48;4.32;;;9.30;53.40;;;;;;5058928;28;20114;-43
2021/04/22 10:41:33;;;;;;;15.77;4.18;;;9.30;51.90;;;;;;5085085;28;20071;-43
2021/04/22 10:44:00;;;;;;;12.93;4.72;;;9.20;52.20;;;;;;5079545;28;20483;-45
2021/04/22 10:46:28;;;;;;;20.35;5.13;;;9.30;52.70;;;;;;5076265;28;20056;-41
2021/04/22 10:48:55;;;;;;;10.90;4.70;;;9.30;52.10;;;;;;5072564;28;20044;-46
2021/04/22 10:51:22;;;;;;;;;;;9.30;51.80;;;;;;5072387;28;20049;-44
2021/04/22 10:53:53;;;;;;;18.27;4.50;;;9.50;51.50;;;;;;5072223;28;20358;-43
2021/04/22 10:56:28;;;;;;;16.83;4.50;;;9.50;49.10;;;;;;5072431;28;20048;-43
2021/04/22 10:58:55;;;;;;;11.48;4.28;;;9.60;50.60;;;;;;5072356;28;20041;-44
2021/04/22 11:01:32;;;;;;;12.52;4.20;;;9.50;49.80;;;;;;5072403;28;20056;-46
2021/04/22 11:04:05;;;;;;;13.93;4.57;;;9.50;50.10;;;;;;5071888;28;20048;-47
2021/04/22 11:06:34;;;;;;;13.18;4.68;;;9.60;50.30;;;;;;5072601;28;20044;-44
2021/04/22 11:09:16;;;;;;;15.57;4.57;;;9.70;50.60;;;;;;5072217;28;20036;-46
2021/04/22 11:11:59;;;;;;;17.45;4.80;;;9.70;49.70;;;;;;5072215;28;20048;-42
2021/04/22 11:14:35;;;;;;;18.17;4.60;;;9.70;49.80;;;;;;5059445;28;20049;-44
2021/04/22 11:17:03;;;;;;;14.32;4.00;;;9.70;49.50;;;;;;5071643;28;20072;-46
2021/04/22 11:19:45;;;;;;;14.32;4.20;;;9.70;49.40;;;;;;5072225;28;20059;-45
2021/04/22 11:22:25;;;;;;;14.77;4.30;;;9.70;50.10;;;;;;5071320;28;20044;-42
2021/04/22 11:25:00;;;;;;;15.13;4.50;;;9.90;49.80;;;;;;5071420;28;20072;-47
2021/04/22 11:27:34;;;;;;;12.32;4.28;;;9.90;49.10;;;;;;5071751;28;20044;-43
2021/04/22 11:30:05;;;;;;;10.73;4.65;;;9.90;49.40;;;;;;5071914;28;20071;-44
2021/04/22 11:32:40;;;;;;;18.92;4.38;;;9.90;49.00;;;;;;5071440;28;20490;-43
2021/04/22 11:35:12;;;;;;;21.70;4.97;;;9.90;48.30;;;;;;5072202;28;20046;-44
2021/04/22 11:37:44;;;;;;;17.98;5.10;;;10.00;49.50;;;;;;5071672;28;20561;-44
2021/04/22 11:40:14;;;;;;;13.75;4.30;;;10.10;47.60;;;;;;5071649;28;20072;-41
2021/04/22 11:42:43;;;;;;;16.35;4.55;;;10.10;48.70;;;;;;5071677;28;20584;-46
2021/04/22 11:45:13;;;;;;;27.00;5.35;;;10.10;48.20;;;;;;5071544;28;20070;-44
2021/04/22 11:47:57;;;;;;;13.43;3.75;;;10.10;48.30;;;;;;5071794;28;20098;-45
2021/04/22 11:50:43;;;;;;;13.05;4.65;;;10.10;48.30;;;;;;5071623;28;20040;-45
2021/04/22 11:53:11;;;;;;;10.93;4.00;;;10.20;46.80;;;;;;5070751;28;20044;-43
2021/04/22 11:55:52;;;;;;;10.73;3.92;;;10.30;47.40;;;;;;5071820;28;20117;-45
2021/04/22 11:58:24;;;;;;;12.70;4.30;;;10.20;47.70;;;;;;5071547;28;20052;-42
2021/04/22 12:00:54;;;;;;;14.60;4.30;;;10.30;46.90;;;;;;5072169;28;20094;-44
2021/04/22 12:03:31;;;;;;;11.43;3.78;;;10.30;47.10;;;;;;5071858;28;20044;-39
2021/04/22 12:06:00;;;;;;;18.40;4.50;;;10.30;47.80;;;;;;5072324;28;20063;-42
2021/04/22 12:08:32;;;;;;;17.63;4.45;;;10.30;48.20;;;;;;5070854;28;20048;-43
2021/04/22 12:11:02;;;;;;;11.05;4.20;;;10.40;48.80;;;;;;5071121;28;20048;-43
2021/04/22 12:13:30;;;;;;;17.05;4.75;;;10.50;49.10;;;;;;5070087;28;20060;-42
2021/04/22 12:15:58;;;;;;;18.25;4.75;;;10.60;48.50;;;;;;5057869;28;20083;-43
2021/04/22 12:18:28;;;;;;;15.13;4.63;;;10.60;47.70;;;;;;5071725;28;20052;-54
2021/04/22 12:21:05;;;;;;;13.02;4.25;;;10.50;48.10;;;;;;5070995;28;20044;-49
2021/04/22 12:23:33;;;;;;;16.10;4.65;;;10.50;47.20;;;;;;5070762;28;20090;-51
2021/04/22 13:11:29;;;;;;;15.30;5.10;;;11.00;45.30;;;;;;5089467;28;20344;-52
2021/04/22 13:14:07;;;;;;;14.18;4.93;;;11.00;46.00;;;;;;5088862;28;20048;-43
2021/04/22 13:16:47;;;;;;;11.88;4.32;;;11.10;45.10;;;;;;5089308;28;20109;-43
2021/04/22 13:19:19;;;;;;;19.08;4.68;;;11.10;44.90;;;;;;5088609;28;20048;-44
2021/04/22 13:21:49;;;;;;;12.10;3.85;;;11.10;45.00;;;;;;5089194;28;20106;-45
2021/04/22 13:24:18;;;;;;;17.48;4.25;;;11.10;44.40;;;;;;5088980;28;20044;-45
2021/04/22 13:26:57;;;;;;;12.35;4.43;;;11.20;45.10;;;;;;5088842;28;20048;-47
2021/04/22 13:29:26;;;;;;;19.15;5.18;;;11.20;45.70;;;;;;5088800;28;20036;-41
2021/04/22 13:32:08;;;;;;;15.88;4.45;;;11.30;45.90;;;;;;5087780;28;20070;-44
2021/04/22 13:34:44;;;;;;;13.98;4.18;;;11.30;46.10;;;;;;5087546;28;20048;-46
2021/04/22 13:37:12;;;;;;;13.23;4.82;;;11.40;45.90;;;;;;5088522;28;20456;-46
2021/04/22 13:39:41;;;;;;;17.77;4.47;;;11.40;45.90;;;;;;5088661;28;20071;-44
2021/04/22 13:42:13;;;;;;;15.20;4.60;;;11.30;46.30;;;;;;5088876;28;20052;-45
2021/04/22 13:44:41;;;;;;;21.08;5.22;;;11.30;46.30;;;;;;5088193;28;20048;-44
2021/04/22 13:47:11;;;;;;;28.73;5.70;;;11.30;47.00;;;;;;5088439;28;20404;-41
2021/04/22 13:49:40;;;;;;;13.77;4.05;;;11.40;47.60;;;;;;5088210;28;20043;-43